sensor_id;sensor_type;location;lat;lon;timestamp;P1;durP1;ratioP1;P2;durP2;ratioP2
81544;SDS011;70990;50.618;7.346;2023-12-20T00:01:02;3.00;;;1.48;;
81544;SDS011;70990;50.618;7.346;2023-12-20T00:03:30;3.47;;;1.40;;
81544;SDS011;70990;50.618;7.346;2023-12-20T00:06:07;2.20;;;1.13;;
81544;SDS011;70990;50.618;7.346;2023-12-20T00:08:34;2.47;;;1.10;;
81544;SDS011;70990;50.618;7.346;2023-12-20T00:11:01;2.90;;;1.20;;
81544;SDS011;70990;50.618;7.346;2023-12-20T00:13:28;2.20;;;1.17;;
81544;SDS011;70990;50.618;7.346;2023-12-20T00:15:55;3.28;;;0.90;;
81544;SDS011;70990;50.618;7.346;2023-12-20T00:18:23;2.38;;;1.00;;
81544;SDS011;70990;50.618;7.346;2023-12-20T00:20:52;2.10;;;1.00;;
81544;SDS011;70990;50.618;7.346;2023-12-20T00:23:19;2.08;;;1.00;;
81544;SDS011;70990;50.618;7.346;2023-12-20T00:25:46;3.03;;;1.20;;
81544;SDS011;70990;50.618;7.346;2023-12-20T00:28:12;1.83;;;1.08;;
81544;SDS011;70990;50.618;7.346;2023-12-20T00:30:39;3.30;;;1.25;;
81544;SDS011;70990;50.618;7.346;2023-12-20T00:33:06;2.88;;;1.27;;
81544;SDS011;70990;50.618;7.346;2023-12-20T00:35:33;3.08;;;1.20;;
81544;SDS011;70990;50.618;7.346;2023-12-20T00:37:59;3.63;;;1.48;;
81544;SDS011;70990;50.618;7.346;2023-12-20T00:40:26;2.63;;;1.20;;
81544;SDS011;70990;50.618;7.346;2023-12-20T00:42:53;2.50;;;0.80;;
81544;SDS011;70990;50.618;7.346;2023-12-20T00:45:19;3.50;;;1.23;;
81544;SDS011;70990;50.618;7.346;2023-12-20T00:47:46;1.63;;;0.90;;
81544;SDS011;70990;50.618;7.346;2023-12-20T00:50:13;3.75;;;1.33;;
81544;SDS011;70990;50.618;7.346;2023-12-20T00:52:40;4.32;;;1.20;;
81544;SDS011;70990;50.618;7.346;2023-12-20T00:55:06;1.15;;;0.68;;
81544;SDS011;70990;50.618;7.346;2023-12-20T00:57:33;3.70;;;1.20;;
81544;SDS011;70990;50.618;7.346;2023-12-20T01:00:00;1.98;;;1.00;;
81544;SDS011;70990;50.618;7.346;2023-12-20T01:02:27;2.38;;;0.90;;
81544;SDS011;70990;50.618;7.346;2023-12-20T01:04:54;2.92;;;1.20;;
81544;SDS011;70990;50.618;7.346;2023-12-20T01:07:20;2.75;;;1.10;;
81544;SDS011;70990;50.618;7.346;2023-12-20T01:09:47;2.53;;;1.23;;
81544;SDS011;70990;50.618;7.346;2023-12-20T01:12:14;2.70;;;1.20;;
81544;SDS011;70990;50.618;7.346;2023-12-20T01:14:40;4.85;;;1.20;;
81544;SDS011;70990;50.618;7.346;2023-12-20T01:17:07;1.75;;;0.82;;
81544;SDS011;70990;50.618;7.346;2023-12-20T01:19:33;1.58;;;0.75;;
81544;SDS011;70990;50.618;7.346;2023-12-20T01:22:00;2.40;;;0.90;;
81544;SDS011;70990;50.618;7.346;2023-12-20T01:24:27;3.05;;;0.70;;
81544;SDS011;70990;50.618;7.346;2023-12-20T01:26:53;1.63;;;0.82;;
81544;SDS011;70990;50.618;7.346;2023-12-20T01:29:20;1.20;;;0.60;;
81544;SDS011;70990;50.618;7.346;2023-12-20T01:31:46;1.10;;;0.60;;
81544;SDS011;70990;50.618;7.346;2023-12-20T01:34:13;1.33;;;0.50;;
81544;SDS011;70990;50.618;7.346;2023-12-20T01:36:40;2.42;;;0.75;;
81544;SDS011;70990;50.618;7.346;2023-12-20T01:39:07;2.17;;;0.88;;
81544;SDS011;70990;50.618;7.346;2023-12-20T01:41:49;3.50;;;1.35;;
81544;SDS011;70990;50.618;7.346;2023-12-20T01:44:16;2.60;;;1.20;;
81544;SDS011;70990;50.618;7.346;2023-12-20T01:46:43;4.35;;;1.67;;
81544;SDS011;70990;50.618;7.346;2023-12-20T01:49:09;6.45;;;1.70;;
81544;SDS011;70990;50.618;7.346;2023-12-20T01:51:36;3.75;;;1.77;;
81544;SDS011;70990;50.618;7.346;2023-12-20T01:54:03;3.00;;;1.48;;
81544;SDS011;70990;50.618;7.346;2023-12-20T01:56:30;7.55;;;2.67;;
81544;SDS011;70990;50.618;7.346;2023-12-20T01:58:58;5.63;;;2.28;;
81544;SDS011;70990;50.618;7.346;2023-12-20T02:01:25;6.65;;;2.78;;
81544;SDS011;70990;50.618;7.346;2023-12-20T02:03:52;6.25;;;2.78;;
81544;SDS011;70990;50.618;7.346;2023-12-20T02:06:18;7.20;;;2.88;;
81544;SDS011;70990;50.618;7.346;2023-12-20T02:08:48;6.78;;;2.42;;
81544;SDS011;70990;50.618;7.346;2023-12-20T02:11:16;7.03;;;2.22;;
81544;SDS011;70990;50.618;7.346;2023-12-20T02:13:43;5.20;;;2.25;;
81544;SDS011;70990;50.618;7.346;2023-12-20T02:16:10;6.97;;;3.00;;
81544;SDS011;70990;50.618;7.346;2023-12-20T02:18:36;8.27;;;3.20;;
81544;SDS011;70990;50.618;7.346;2023-12-20T02:21:04;6.63;;;2.45;;
81544;SDS011;70990;50.618;7.346;2023-12-20T02:23:31;8.10;;;3.08;;
81544;SDS011;70990;50.618;7.346;2023-12-20T02:25:58;11.32;;;2.65;;
81544;SDS011;70990;50.618;7.346;2023-12-20T02:28:24;5.35;;;2.20;;
81544;SDS011;70990;50.618;7.346;2023-12-20T02:30:51;10.10;;;3.42;;
81544;SDS011;70990;50.618;7.346;2023-12-20T02:33:18;7.00;;;3.03;;
81544;SDS011;70990;50.618;7.346;2023-12-20T02:35:44;8.23;;;3.30;;
81544;SDS011;70990;50.618;7.346;2023-12-20T02:38:11;7.70;;;2.95;;
81544;SDS011;70990;50.618;7.346;2023-12-20T02:40:38;11.32;;;2.88;;
81544;SDS011;70990;50.618;7.346;2023-12-20T02:43:04;9.45;;;3.15;;
81544;SDS011;70990;50.618;7.346;2023-12-20T02:45:31;8.07;;;2.78;;
81544;SDS011;70990;50.618;7.346;2023-12-20T02:47:57;6.95;;;2.75;;
81544;SDS011;70990;50.618;7.346;2023-12-20T02:50:24;2.72;;;1.23;;
81544;SDS011;70990;50.618;7.346;2023-12-20T02:52:50;8.80;;;2.78;;
81544;SDS011;70990;50.618;7.346;2023-12-20T02:55:17;6.78;;;2.30;;
81544;SDS011;70990;50.618;7.346;2023-12-20T02:57:44;7.55;;;2.78;;
81544;SDS011;70990;50.618;7.346;2023-12-20T03:00:11;8.35;;;2.55;;
81544;SDS011;70990;50.618;7.346;2023-12-20T03:02:39;7.60;;;2.28;;
81544;SDS011;70990;50.618;7.346;2023-12-20T03:05:05;10.30;;;2.80;;
81544;SDS011;70990;50.618;7.346;2023-12-20T03:07:32;8.73;;;2.10;;
81544;SDS011;70990;50.618;7.346;2023-12-20T03:09:59;8.68;;;2.08;;
81544;SDS011;70990;50.618;7.346;2023-12-20T03:12:44;5.57;;;1.67;;
81544;SDS011;70990;50.618;7.346;2023-12-20T03:15:11;3.42;;;1.45;;
81544;SDS011;70990;50.618;7.346;2023-12-20T03:17:37;4.88;;;1.88;;
81544;SDS011;70990;50.618;7.346;2023-12-20T03:20:04;4.13;;;1.55;;
81544;SDS011;70990;50.618;7.346;2023-12-20T03:22:32;5.82;;;1.50;;
81544;SDS011;70990;50.618;7.346;2023-12-20T03:24:58;6.68;;;1.88;;
81544;SDS011;70990;50.618;7.346;2023-12-20T03:27:25;7.82;;;0.90;;
81544;SDS011;70990;50.618;7.346;2023-12-20T03:29:51;10.60;;;2.05;;
81544;SDS011;70990;50.618;7.346;2023-12-20T03:32:18;4.03;;;0.90;;
81544;SDS011;70990;50.618;7.346;2023-12-20T03:34:44;12.77;;;2.13;;
81544;SDS011;70990;50.618;7.346;2023-12-20T03:37:11;7.90;;;1.40;;
81544;SDS011;70990;50.618;7.346;2023-12-20T03:39:38;5.07;;;1.40;;
81544;SDS011;70990;50.618;7.346;2023-12-20T03:42:04;1.95;;;0.65;;
81544;SDS011;70990;50.618;7.346;2023-12-20T03:44:31;7.10;;;1.55;;
81544;SDS011;70990;50.618;7.346;2023-12-20T03:47:00;5.93;;;1.38;;
81544;SDS011;70990;50.618;7.346;2023-12-20T03:49:27;8.25;;;1.52;;
81544;SDS011;70990;50.618;7.346;2023-12-20T03:51:53;7.47;;;1.58;;
81544;SDS011;70990;50.618;7.346;2023-12-20T03:54:20;5.50;;;1.65;;
81544;SDS011;70990;50.618;7.346;2023-12-20T03:56:46;7.07;;;1.83;;
81544;SDS011;70990;50.618;7.346;2023-12-20T03:59:13;6.97;;;1.40;;
81544;SDS011;70990;50.618;7.346;2023-12-20T04:01:43;6.75;;;1.80;;
81544;SDS011;70990;50.618;7.346;2023-12-20T04:04:10;6.25;;;1.60;;
81544;SDS011;70990;50.618;7.346;2023-12-20T04:06:37;5.43;;;1.27;;
81544;SDS011;70990;50.618;7.346;2023-12-20T04:09:04;4.65;;;1.40;;
81544;SDS011;70990;50.618;7.346;2023-12-20T04:11:31;6.15;;;1.20;;
81544;SDS011;70990;50.618;7.346;2023-12-20T04:13:58;5.55;;;1.52;;
81544;SDS011;70990;50.618;7.346;2023-12-20T04:16:24;9.05;;;2.17;;
81544;SDS011;70990;50.618;7.346;2023-12-20T04:18:51;2.20;;;0.93;;
81544;SDS011;70990;50.618;7.346;2023-12-20T04:21:18;8.38;;;1.25;;
81544;SDS011;70990;50.618;7.346;2023-12-20T04:23:44;5.57;;;1.15;;
81544;SDS011;70990;50.618;7.346;2023-12-20T04:26:11;8.13;;;1.38;;
81544;SDS011;70990;50.618;7.346;2023-12-20T04:28:37;6.15;;;1.38;;
81544;SDS011;70990;50.618;7.346;2023-12-20T04:31:04;9.15;;;1.58;;
81544;SDS011;70990;50.618;7.346;2023-12-20T04:33:30;5.80;;;1.45;;
81544;SDS011;70990;50.618;7.346;2023-12-20T04:35:57;9.43;;;1.98;;
81544;SDS011;70990;50.618;7.346;2023-12-20T04:38:23;6.82;;;1.70;;
81544;SDS011;70990;50.618;7.346;2023-12-20T04:40:50;12.48;;;1.73;;
81544;SDS011;70990;50.618;7.346;2023-12-20T04:43:17;5.78;;;1.65;;
81544;SDS011;70990;50.618;7.346;2023-12-20T04:45:43;5.60;;;1.17;;
81544;SDS011;70990;50.618;7.346;2023-12-20T04:48:10;9.77;;;1.77;;
81544;SDS011;70990;50.618;7.346;2023-12-20T04:50:37;4.53;;;1.33;;
81544;SDS011;70990;50.618;7.346;2023-12-20T04:53:03;7.68;;;2.22;;
81544;SDS011;70990;50.618;7.346;2023-12-20T04:55:30;15.25;;;2.45;;
81544;SDS011;70990;50.618;7.346;2023-12-20T04:57:56;5.85;;;1.92;;
81544;SDS011;70990;50.618;7.346;2023-12-20T05:00:23;11.68;;;2.15;;
81544;SDS011;70990;50.618;7.346;2023-12-20T05:02:49;4.70;;;1.60;;
81544;SDS011;70990;50.618;7.346;2023-12-20T05:05:16;4.70;;;2.03;;
81544;SDS011;70990;50.618;7.346;2023-12-20T05:07:43;13.05;;;3.95;;
81544;SDS011;70990;50.618;7.346;2023-12-20T05:10:10;8.70;;;3.05;;
81544;SDS011;70990;50.618;7.346;2023-12-20T05:12:37;6.90;;;1.95;;
81544;SDS011;70990;50.618;7.346;2023-12-20T05:15:05;9.45;;;2.45;;
81544;SDS011;70990;50.618;7.346;2023-12-20T05:17:32;7.10;;;1.92;;
81544;SDS011;70990;50.618;7.346;2023-12-20T05:19:59;5.63;;;2.00;;
81544;SDS011;70990;50.618;7.346;2023-12-20T05:22:25;5.95;;;1.77;;
81544;SDS011;70990;50.618;7.346;2023-12-20T05:24:52;15.82;;;3.03;;
81544;SDS011;70990;50.618;7.346;2023-12-20T05:27:19;6.70;;;3.08;;
81544;SDS011;70990;50.618;7.346;2023-12-20T05:29:45;10.27;;;2.63;;
81544;SDS011;70990;50.618;7.346;2023-12-20T05:32:12;8.30;;;2.67;;
81544;SDS011;70990;50.618;7.346;2023-12-20T05:34:38;10.57;;;2.85;;
81544;SDS011;70990;50.618;7.346;2023-12-20T05:37:05;15.98;;;2.47;;
81544;SDS011;70990;50.618;7.346;2023-12-20T05:39:32;10.00;;;2.40;;
81544;SDS011;70990;50.618;7.346;2023-12-20T05:41:58;7.32;;;2.22;;
81544;SDS011;70990;50.618;7.346;2023-12-20T05:44:25;9.75;;;2.05;;
81544;SDS011;70990;50.618;7.346;2023-12-20T05:46:51;10.25;;;2.30;;
81544;SDS011;70990;50.618;7.346;2023-12-20T05:49:18;7.68;;;2.28;;
81544;SDS011;70990;50.618;7.346;2023-12-20T05:51:45;14.65;;;3.95;;
81544;SDS011;70990;50.618;7.346;2023-12-20T05:54:11;10.95;;;2.65;;
81544;SDS011;70990;50.618;7.346;2023-12-20T05:56:38;12.23;;;2.38;;
81544;SDS011;70990;50.618;7.346;2023-12-20T05:59:05;7.97;;;1.85;;
81544;SDS011;70990;50.618;7.346;2023-12-20T06:01:31;9.73;;;2.28;;
81544;SDS011;70990;50.618;7.346;2023-12-20T06:03:58;8.50;;;2.40;;
81544;SDS011;70990;50.618;7.346;2023-12-20T06:06:25;12.43;;;1.92;;
81544;SDS011;70990;50.618;7.346;2023-12-20T06:08:51;9.07;;;2.05;;
81544;SDS011;70990;50.618;7.346;2023-12-20T06:11:18;8.57;;;2.28;;
81544;SDS011;70990;50.618;7.346;2023-12-20T06:13:44;6.97;;;1.85;;
81544;SDS011;70990;50.618;7.346;2023-12-20T06:16:10;6.32;;;1.70;;
81544;SDS011;70990;50.618;7.346;2023-12-20T06:18:37;7.32;;;1.73;;
81544;SDS011;70990;50.618;7.346;2023-12-20T06:21:04;13.20;;;2.17;;
81544;SDS011;70990;50.618;7.346;2023-12-20T06:23:30;12.32;;;2.40;;
81544;SDS011;70990;50.618;7.346;2023-12-20T06:25:57;3.60;;;1.27;;
81544;SDS011;70990;50.618;7.346;2023-12-20T06:28:24;6.22;;;1.83;;
81544;SDS011;70990;50.618;7.346;2023-12-20T06:30:50;8.20;;;1.80;;
81544;SDS011;70990;50.618;7.346;2023-12-20T06:33:17;10.13;;;2.47;;
81544;SDS011;70990;50.618;7.346;2023-12-20T06:35:43;9.27;;;1.75;;
81544;SDS011;70990;50.618;7.346;2023-12-20T06:38:10;3.55;;;1.30;;
81544;SDS011;70990;50.618;7.346;2023-12-20T06:40:36;6.18;;;1.67;;
81544;SDS011;70990;50.618;7.346;2023-12-20T06:43:03;11.30;;;2.22;;
81544;SDS011;70990;50.618;7.346;2023-12-20T06:45:41;8.98;;;1.92;;
81544;SDS011;70990;50.618;7.346;2023-12-20T06:48:08;13.32;;;2.67;;
81544;SDS011;70990;50.618;7.346;2023-12-20T06:50:35;9.75;;;1.92;;
81544;SDS011;70990;50.618;7.346;2023-12-20T06:53:01;6.82;;;2.08;;
81544;SDS011;70990;50.618;7.346;2023-12-20T06:55:28;9.77;;;2.15;;
81544;SDS011;70990;50.618;7.346;2023-12-20T06:57:54;4.38;;;1.42;;
81544;SDS011;70990;50.618;7.346;2023-12-20T07:00:21;11.60;;;2.00;;
81544;SDS011;70990;50.618;7.346;2023-12-20T07:02:47;14.07;;;1.63;;
81544;SDS011;70990;50.618;7.346;2023-12-20T07:05:16;8.95;;;1.75;;
81544;SDS011;70990;50.618;7.346;2023-12-20T07:07:43;7.68;;;2.30;;
81544;SDS011;70990;50.618;7.346;2023-12-20T07:10:10;13.45;;;1.88;;
81544;SDS011;70990;50.618;7.346;2023-12-20T07:12:37;6.50;;;1.42;;
81544;SDS011;70990;50.618;7.346;2023-12-20T07:15:04;5.13;;;1.50;;
81544;SDS011;70990;50.618;7.346;2023-12-20T07:17:30;18.50;;;2.00;;
81544;SDS011;70990;50.618;7.346;2023-12-20T07:19:59;8.25;;;2.13;;
81544;SDS011;70990;50.618;7.346;2023-12-20T07:22:25;10.05;;;2.08;;
81544;SDS011;70990;50.618;7.346;2023-12-20T07:24:52;8.35;;;1.85;;
81544;SDS011;70990;50.618;7.346;2023-12-20T07:27:19;7.15;;;1.92;;
81544;SDS011;70990;50.618;7.346;2023-12-20T07:29:45;5.25;;;1.30;;
81544;SDS011;70990;50.618;7.346;2023-12-20T07:32:12;6.65;;;1.45;;
81544;SDS011;70990;50.618;7.346;2023-12-20T07:34:38;5.97;;;1.52;;
81544;SDS011;70990;50.618;7.346;2023-12-20T07:37:05;5.45;;;1.13;;
81544;SDS011;70990;50.618;7.346;2023-12-20T07:39:32;5.47;;;2.30;;
81544;SDS011;70990;50.618;7.346;2023-12-20T07:41:58;11.68;;;2.45;;
81544;SDS011;70990;50.618;7.346;2023-12-20T07:44:25;4.00;;;1.13;;
81544;SDS011;70990;50.618;7.346;2023-12-20T07:46:52;7.63;;;2.15;;
81544;SDS011;70990;50.618;7.346;2023-12-20T07:49:18;8.50;;;1.90;;
81544;SDS011;70990;50.618;7.346;2023-12-20T07:51:45;5.45;;;1.67;;
81544;SDS011;70990;50.618;7.346;2023-12-20T07:54:12;6.80;;;1.65;;
81544;SDS011;70990;50.618;7.346;2023-12-20T07:56:38;18.55;;;2.30;;
81544;SDS011;70990;50.618;7.346;2023-12-20T07:59:05;8.35;;;1.90;;
81544;SDS011;70990;50.618;7.346;2023-12-20T08:01:37;9.32;;;1.90;;
81544;SDS011;70990;50.618;7.346;2023-12-20T08:04:04;6.35;;;1.63;;
81544;SDS011;70990;50.618;7.346;2023-12-20T08:06:31;6.88;;;2.00;;
81544;SDS011;70990;50.618;7.346;2023-12-20T08:08:57;6.50;;;2.15;;
81544;SDS011;70990;50.618;7.346;2023-12-20T08:11:32;13.20;;;2.25;;
81544;SDS011;70990;50.618;7.346;2023-12-20T08:13:58;10.45;;;2.15;;
81544;SDS011;70990;50.618;7.346;2023-12-20T08:16:25;3.85;;;1.45;;
81544;SDS011;70990;50.618;7.346;2023-12-20T08:18:52;4.85;;;1.40;;
81544;SDS011;70990;50.618;7.346;2023-12-20T08:21:18;6.82;;;1.73;;
81544;SDS011;70990;50.618;7.346;2023-12-20T08:23:45;9.60;;;1.98;;
81544;SDS011;70990;50.618;7.346;2023-12-20T08:26:12;8.20;;;2.03;;
81544;SDS011;70990;50.618;7.346;2023-12-20T08:28:39;10.98;;;2.10;;
81544;SDS011;70990;50.618;7.346;2023-12-20T08:31:06;6.35;;;2.47;;
81544;SDS011;70990;50.618;7.346;2023-12-20T08:33:40;7.35;;;2.33;;
81544;SDS011;70990;50.618;7.346;2023-12-20T08:36:06;17.05;;;5.20;;
81544;SDS011;70990;50.618;7.346;2023-12-20T08:38:33;22.58;;;6.80;;
81544;SDS011;70990;50.618;7.346;2023-12-20T08:40:59;10.07;;;3.38;;
81544;SDS011;70990;50.618;7.346;2023-12-20T08:43:26;6.03;;;1.77;;
81544;SDS011;70990;50.618;7.346;2023-12-20T08:45:53;7.93;;;1.55;;
81544;SDS011;70990;50.618;7.346;2023-12-20T08:48:19;8.43;;;2.35;;
81544;SDS011;70990;50.618;7.346;2023-12-20T08:50:46;9.57;;;2.47;;
81544;SDS011;70990;50.618;7.346;2023-12-20T08:53:12;8.57;;;3.17;;
81544;SDS011;70990;50.618;7.346;2023-12-20T08:55:39;1.63;;;0.75;;
81544;SDS011;70990;50.618;7.346;2023-12-20T08:58:06;5.97;;;2.05;;
81544;SDS011;70990;50.618;7.346;2023-12-20T09:00:32;12.23;;;3.75;;
81544;SDS011;70990;50.618;7.346;2023-12-20T09:02:59;15.32;;;3.35;;
81544;SDS011;70990;50.618;7.346;2023-12-20T09:05:26;11.85;;;3.63;;
81544;SDS011;70990;50.618;7.346;2023-12-20T09:07:53;14.52;;;3.75;;
81544;SDS011;70990;50.618;7.346;2023-12-20T09:10:19;12.15;;;2.28;;
81544;SDS011;70990;50.618;7.346;2023-12-20T09:12:46;5.82;;;1.67;;
81544;SDS011;70990;50.618;7.346;2023-12-20T09:15:13;4.95;;;1.65;;
81544;SDS011;70990;50.618;7.346;2023-12-20T09:17:39;7.43;;;2.08;;
81544;SDS011;70990;50.618;7.346;2023-12-20T09:20:06;6.30;;;2.03;;
81544;SDS011;70990;50.618;7.346;2023-12-20T09:22:33;4.50;;;1.33;;
81544;SDS011;70990;50.618;7.346;2023-12-20T09:25:00;7.90;;;2.22;;
81544;SDS011;70990;50.618;7.346;2023-12-20T09:27:27;10.90;;;1.08;;
81544;SDS011;70990;50.618;7.346;2023-12-20T09:29:54;1.05;;;0.52;;
81544;SDS011;70990;50.618;7.346;2023-12-20T09:32:20;7.70;;;1.20;;
81544;SDS011;70990;50.618;7.346;2023-12-20T09:34:47;6.47;;;1.35;;
81544;SDS011;70990;50.618;7.346;2023-12-20T09:37:14;3.35;;;0.93;;
81544;SDS011;70990;50.618;7.346;2023-12-20T09:39:41;5.55;;;1.33;;
81544;SDS011;70990;50.618;7.346;2023-12-20T09:42:07;5.90;;;1.17;;
81544;SDS011;70990;50.618;7.346;2023-12-20T09:44:36;6.13;;;0.88;;
81544;SDS011;70990;50.618;7.346;2023-12-20T09:47:03;6.15;;;1.05;;
81544;SDS011;70990;50.618;7.346;2023-12-20T09:49:30;3.88;;;1.10;;
81544;SDS011;70990;50.618;7.346;2023-12-20T09:51:59;4.28;;;1.20;;
81544;SDS011;70990;50.618;7.346;2023-12-20T09:54:26;5.30;;;1.35;;
81544;SDS011;70990;50.618;7.346;2023-12-20T09:56:55;3.88;;;1.10;;
81544;SDS011;70990;50.618;7.346;2023-12-20T09:59:22;5.53;;;1.05;;
81544;SDS011;70990;50.618;7.346;2023-12-20T10:01:48;3.85;;;0.60;;
81544;SDS011;70990;50.618;7.346;2023-12-20T10:04:16;6.03;;;1.55;;
81544;SDS011;70990;50.618;7.346;2023-12-20T10:06:55;4.35;;;0.85;;
81544;SDS011;70990;50.618;7.346;2023-12-20T10:09:22;7.70;;;1.40;;
81544;SDS011;70990;50.618;7.346;2023-12-20T10:11:49;7.05;;;1.55;;
81544;SDS011;70990;50.618;7.346;2023-12-20T10:14:16;4.25;;;1.00;;
81544;SDS011;70990;50.618;7.346;2023-12-20T10:16:42;6.93;;;1.55;;
81544;SDS011;70990;50.618;7.346;2023-12-20T10:19:09;3.55;;;1.08;;
81544;SDS011;70990;50.618;7.346;2023-12-20T10:21:35;7.57;;;1.42;;
81544;SDS011;70990;50.618;7.346;2023-12-20T10:24:02;3.55;;;1.05;;
81544;SDS011;70990;50.618;7.346;2023-12-20T10:26:31;1.52;;;0.60;;
81544;SDS011;70990;50.618;7.346;2023-12-20T10:28:59;2.80;;;1.00;;
81544;SDS011;70990;50.618;7.346;2023-12-20T10:31:31;7.70;;;1.13;;
81544;SDS011;70990;50.618;7.346;2023-12-20T10:33:59;6.03;;;1.30;;
81544;SDS011;70990;50.618;7.346;2023-12-20T10:36:27;4.40;;;1.08;;
81544;SDS011;70990;50.618;7.346;2023-12-20T10:38:56;4.32;;;1.15;;
81544;SDS011;70990;50.618;7.346;2023-12-20T10:41:28;3.60;;;0.95;;
81544;SDS011;70990;50.618;7.346;2023-12-20T10:43:59;7.18;;;1.83;;
81544;SDS011;70990;50.618;7.346;2023-12-20T10:46:27;5.80;;;1.00;;
81544;SDS011;70990;50.618;7.346;2023-12-20T10:48:54;4.70;;;0.90;;
81544;SDS011;70990;50.618;7.346;2023-12-20T10:51:21;5.70;;;1.67;;
81544;SDS011;70990;50.618;7.346;2023-12-20T10:53:48;7.03;;;1.65;;
81544;SDS011;70990;50.618;7.346;2023-12-20T10:56:17;7.25;;;1.80;;
81544;SDS011;70990;50.618;7.346;2023-12-20T10:58:45;2.70;;;1.08;;
81544;SDS011;70990;50.618;7.346;2023-12-20T11:01:13;8.18;;;1.75;;
81544;SDS011;70990;50.618;7.346;2023-12-20T11:03:43;2.75;;;1.05;;
81544;SDS011;70990;50.618;7.346;2023-12-20T11:06:26;10.52;;;1.70;;
81544;SDS011;70990;50.618;7.346;2023-12-20T11:14:56;4.88;;;1.38;;
81544;SDS011;70990;50.618;7.346;2023-12-20T11:17:24;6.57;;;1.35;;
81544;SDS011;70990;50.618;7.346;2023-12-20T11:22:26;5.25;;;1.40;;
81544;SDS011;70990;50.618;7.346;2023-12-20T11:27:30;4.13;;;1.20;;
81544;SDS011;70990;50.618;7.346;2023-12-20T11:29:58;7.38;;;1.20;;
81544;SDS011;70990;50.618;7.346;2023-12-20T11:34:51;6.93;;;2.03;;
81544;SDS011;70990;50.618;7.346;2023-12-20T11:37:21;7.00;;;2.20;;
81544;SDS011;70990;50.618;7.346;2023-12-20T11:40:00;13.07;;;2.22;;
81544;SDS011;70990;50.618;7.346;2023-12-20T11:42:27;6.25;;;1.55;;
81544;SDS011;70990;50.618;7.346;2023-12-20T11:44:54;2.75;;;1.27;;
81544;SDS011;70990;50.618;7.346;2023-12-20T11:47:22;1.77;;;0.77;;
81544;SDS011;70990;50.618;7.346;2023-12-20T11:49:49;4.15;;;1.10;;
81544;SDS011;70990;50.618;7.346;2023-12-20T11:52:16;9.63;;;2.08;;
81544;SDS011;70990;50.618;7.346;2023-12-20T11:54:42;7.43;;;1.50;;
81544;SDS011;70990;50.618;7.346;2023-12-20T11:57:09;5.65;;;1.17;;
81544;SDS011;70990;50.618;7.346;2023-12-20T11:59:36;8.18;;;1.85;;
81544;SDS011;70990;50.618;7.346;2023-12-20T12:02:03;5.25;;;1.55;;
81544;SDS011;70990;50.618;7.346;2023-12-20T12:04:29;13.63;;;1.92;;
81544;SDS011;70990;50.618;7.346;2023-12-20T12:06:57;10.93;;;2.05;;
81544;SDS011;70990;50.618;7.346;2023-12-20T12:09:24;5.63;;;1.52;;
81544;SDS011;70990;50.618;7.346;2023-12-20T12:11:50;8.50;;;1.80;;
81544;SDS011;70990;50.618;7.346;2023-12-20T12:14:17;5.25;;;1.20;;
81544;SDS011;70990;50.618;7.346;2023-12-20T12:16:44;7.63;;;2.17;;
81544;SDS011;70990;50.618;7.346;2023-12-20T12:19:20;6.65;;;1.55;;
81544;SDS011;70990;50.618;7.346;2023-12-20T12:21:47;9.80;;;1.50;;
81544;SDS011;70990;50.618;7.346;2023-12-20T12:24:14;6.78;;;1.50;;
81544;SDS011;70990;50.618;7.346;2023-12-20T12:26:40;4.35;;;1.33;;
81544;SDS011;70990;50.618;7.346;2023-12-20T12:29:07;11.52;;;2.25;;
81544;SDS011;70990;50.618;7.346;2023-12-20T12:31:34;9.93;;;1.80;;
81544;SDS011;70990;50.618;7.346;2023-12-20T12:34:01;7.72;;;1.77;;
81544;SDS011;70990;50.618;7.346;2023-12-20T12:36:29;5.57;;;1.63;;
81544;SDS011;70990;50.618;7.346;2023-12-20T12:38:56;4.72;;;1.67;;
81544;SDS011;70990;50.618;7.346;2023-12-20T12:41:24;6.57;;;1.42;;
81544;SDS011;70990;50.618;7.346;2023-12-20T12:43:50;4.68;;;1.10;;
81544;SDS011;70990;50.618;7.346;2023-12-20T12:46:17;4.63;;;1.33;;
81544;SDS011;70990;50.618;7.346;2023-12-20T12:48:44;6.72;;;1.42;;
81544;SDS011;70990;50.618;7.346;2023-12-20T12:51:12;8.93;;;1.75;;
81544;SDS011;70990;50.618;7.346;2023-12-20T12:53:39;7.47;;;1.63;;
81544;SDS011;70990;50.618;7.346;2023-12-20T12:56:06;5.53;;;1.65;;
81544;SDS011;70990;50.618;7.346;2023-12-20T12:58:33;5.82;;;1.55;;
81544;SDS011;70990;50.618;7.346;2023-12-20T13:01:00;3.47;;;1.40;;
81544;SDS011;70990;50.618;7.346;2023-12-20T13:03:27;8.88;;;1.80;;
81544;SDS011;70990;50.618;7.346;2023-12-20T13:05:53;7.53;;;2.00;;
81544;SDS011;70990;50.618;7.346;2023-12-20T13:08:20;7.10;;;1.80;;
81544;SDS011;70990;50.618;7.346;2023-12-20T13:10:49;3.53;;;1.45;;
81544;SDS011;70990;50.618;7.346;2023-12-20T13:13:16;5.43;;;1.92;;
81544;SDS011;70990;50.618;7.346;2023-12-20T13:15:43;6.32;;;1.63;;
81544;SDS011;70990;50.618;7.346;2023-12-20T13:18:09;4.57;;;1.17;;
81544;SDS011;70990;50.618;7.346;2023-12-20T13:20:36;4.97;;;1.38;;
81544;SDS011;70990;50.618;7.346;2023-12-20T13:23:02;4.90;;;1.88;;
81544;SDS011;70990;50.618;7.346;2023-12-20T13:25:29;5.45;;;1.80;;
81544;SDS011;70990;50.618;7.346;2023-12-20T13:27:56;3.80;;;1.40;;
81544;SDS011;70990;50.618;7.346;2023-12-20T13:30:22;4.82;;;1.77;;
81544;SDS011;70990;50.618;7.346;2023-12-20T13:32:51;3.83;;;1.60;;
81544;SDS011;70990;50.618;7.346;2023-12-20T13:35:18;6.22;;;1.70;;
81544;SDS011;70990;50.618;7.346;2023-12-20T13:37:45;4.60;;;1.48;;
81544;SDS011;70990;50.618;7.346;2023-12-20T13:40:12;4.88;;;1.98;;
81544;SDS011;70990;50.618;7.346;2023-12-20T13:42:39;11.05;;;2.33;;
81544;SDS011;70990;50.618;7.346;2023-12-20T13:45:06;8.02;;;1.70;;
81544;SDS011;70990;50.618;7.346;2023-12-20T13:47:33;5.15;;;1.73;;
81544;SDS011;70990;50.618;7.346;2023-12-20T13:50:02;3.67;;;1.33;;
81544;SDS011;70990;50.618;7.346;2023-12-20T13:52:30;7.40;;;2.45;;
81544;SDS011;70990;50.618;7.346;2023-12-20T13:54:56;8.40;;;1.90;;
81544;SDS011;70990;50.618;7.346;2023-12-20T13:57:23;11.75;;;1.85;;
81544;SDS011;70990;50.618;7.346;2023-12-20T14:00:09;6.13;;;1.48;;
81544;SDS011;70990;50.618;7.346;2023-12-20T14:02:36;3.95;;;1.30;;
81544;SDS011;70990;50.618;7.346;2023-12-20T14:05:03;7.97;;;2.28;;
81544;SDS011;70990;50.618;7.346;2023-12-20T14:07:30;4.03;;;1.23;;
81544;SDS011;70990;50.618;7.346;2023-12-20T14:09:56;6.03;;;1.65;;
81544;SDS011;70990;50.618;7.346;2023-12-20T14:12:23;5.15;;;1.27;;
81544;SDS011;70990;50.618;7.346;2023-12-20T14:14:49;4.22;;;1.30;;
81544;SDS011;70990;50.618;7.346;2023-12-20T14:17:17;2.50;;;1.13;;
81544;SDS011;70990;50.618;7.346;2023-12-20T14:19:43;7.70;;;1.77;;
81544;SDS011;70990;50.618;7.346;2023-12-20T14:22:10;2.83;;;1.13;;
81544;SDS011;70990;50.618;7.346;2023-12-20T14:24:37;4.68;;;1.40;;
81544;SDS011;70990;50.618;7.346;2023-12-20T14:27:03;4.15;;;1.15;;
81544;SDS011;70990;50.618;7.346;2023-12-20T14:29:30;4.18;;;1.33;;
81544;SDS011;70990;50.618;7.346;2023-12-20T14:31:56;2.75;;;1.00;;
81544;SDS011;70990;50.618;7.346;2023-12-20T14:34:23;3.55;;;1.23;;
81544;SDS011;70990;50.618;7.346;2023-12-20T14:36:49;2.13;;;1.00;;
81544;SDS011;70990;50.618;7.346;2023-12-20T14:39:16;2.35;;;1.10;;
81544;SDS011;70990;50.618;7.346;2023-12-20T14:41:43;4.28;;;0.95;;
81544;SDS011;70990;50.618;7.346;2023-12-20T14:44:09;3.67;;;1.33;;
81544;SDS011;70990;50.618;7.346;2023-12-20T14:46:36;0.82;;;0.50;;
81544;SDS011;70990;50.618;7.346;2023-12-20T14:49:05;3.70;;;1.00;;
81544;SDS011;70990;50.618;7.346;2023-12-20T14:51:32;0.77;;;0.47;;
81544;SDS011;70990;50.618;7.346;2023-12-20T14:54:00;0.98;;;0.65;;
81544;SDS011;70990;50.618;7.346;2023-12-20T14:56:26;1.98;;;0.70;;
81544;SDS011;70990;50.618;7.346;2023-12-20T14:58:53;2.13;;;0.70;;